Time;durP1;ratioP1;P1;durP2;ratioP2;P2;SDS_P1;SDS_P2;PMS_P1;PMS_P2;Temp;Humidity;BMP_temperature;BMP_pressure;BME280_temperature;BME280_humidity;BME280_pressure;Samples;Min_cycle;Max_cycle;Signal;HPM_P1;HPM_P2
2022/05/10 00:01:30;;;;;;;16.10;9.68;;;14.90;99.90;;;;;;5030190;28;20162;-58
2022/05/10 00:03:57;;;;;;;15.73;9.07;;;14.90;99.90;;;;;;5030134;28;20641;-58
2022/05/10 00:06:24;;;;;;;15.27;9.18;;;14.90;99.90;;;;;;5030127;28;20634;-58
2022/05/10 00:08:50;;;;;;;22.42;11.48;;;14.90;99.90;;;;;;5030378;28;20174;-58
2022/05/10 00:11:16;;;;;;;19.35;10.68;;;14.90;99.90;;;;;;5033725;28;20671;-58
2022/05/10 00:13:42;;;;;;;20.77;11.48;;;14.90;99.90;;;;;;5033464;28;20640;-58
2022/05/10 00:16:16;;;;;;;18.98;12.18;;;14.80;99.90;;;;;;5033608;28;20525;-58
2022/05/10 00:18:43;;;;;;;22.33;12.35;;;14.80;99.90;;;;;;5033562;28;20209;-58
2022/05/10 00:21:12;;;;;;;23.33;11.35;;;14.70;99.90;;;;;;5033540;28;20174;-58
2022/05/10 00:23:38;;;;;;;22.13;13.43;;;14.70;99.90;;;;;;5033588;28;20256;-58
2022/05/10 00:26:04;;;;;;;23.92;12.52;;;14.70;99.90;;;;;;5033477;28;20241;-58
2022/05/10 00:28:30;;;;;;;23.63;13.43;;;14.70;99.90;;;;;;5033447;28;20186;-58
2022/05/10 00:30:56;;;;;;;24.63;12.90;;;14.60;99.90;;;;;;5033406;28;20583;-58
2022/05/10 00:33:26;;;;;;;22.20;13.23;;;14.60;99.90;;;;;;5033378;28;20220;-58
2022/05/10 00:35:53;;;;;;;25.17;13.52;;;14.60;99.90;;;;;;5033404;28;20205;-58
2022/05/10 00:38:21;;;;;;;24.10;14.60;;;14.60;99.90;;;;;;5033241;28;20209;-58
2022/05/10 00:40:47;;;;;;;22.52;13.13;;;14.50;99.90;;;;;;5030945;28;20285;-58
2022/05/10 00:43:17;;;;;;;23.77;12.93;;;14.40;99.90;;;;;;5032614;28;20724;-58
2022/05/10 00:45:56;;;;;;;25.65;13.80;;;14.50;99.90;;;;;;5033134;28;20173;-58
2022/05/10 00:48:56;;;;;;;28.20;14.25;;;14.40;99.90;;;;;;5032865;28;20190;-58
2022/05/10 00:51:34;;;;;;;27.90;14.35;;;14.40;99.90;;;;;;5032853;28;20177;-58
2022/05/10 00:54:12;;;;;;;27.13;13.82;;;14.40;99.90;;;;;;5032987;28;20644;-58
2022/05/10 00:56:47;;;;;;;30.15;15.80;;;14.40;99.90;;;;;;5032938;28;20257;-58
2022/05/10 00:59:19;;;;;;;25.33;13.80;;;14.40;99.90;;;;;;5032782;28;20201;-58
2022/05/10 01:01:49;;;;;;;23.08;12.88;;;14.40;99.90;;;;;;5032837;28;20174;-58
2022/05/10 01:04:49;;;;;;;25.05;14.25;;;14.40;99.90;;;;;;5032685;28;20174;-58
2022/05/10 01:07:31;;;;;;;24.58;13.90;;;14.40;99.90;;;;;;5032702;28;20182;-58
2022/05/10 01:10:03;;;;;;;27.20;13.82;;;14.30;99.90;;;;;;5032679;28;20186;-58
2022/05/10 01:12:38;;;;;;;23.17;14.05;;;14.30;99.90;;;;;;5032611;28;20166;-58
2022/05/10 01:15:10;;;;;;;26.90;13.35;;;14.30;99.90;;;;;;5032525;28;20204;-58
2022/05/10 01:17:36;;;;;;;24.10;13.80;;;14.30;99.90;;;;;;5032312;28;20209;-58
2022/05/10 01:20:06;;;;;;;24.48;12.05;;;14.30;99.90;;;;;;5032124;28;20178;-58
2022/05/10 01:23:06;;;;;;;28.15;13.02;;;14.30;99.90;;;;;;5032385;28;20174;-58
2022/05/10 01:26:22;;;;;;;28.55;13.70;;;14.20;99.90;;;;;;5032630;28;20165;-58
2022/05/10 01:29:25;;;;;;;26.02;13.90;;;14.20;99.90;;;;;;4990619;28;20271;-58
2022/05/10 01:34:39;;;;;;;24.02;12.70;;;14.10;99.90;;;;;;5032465;28;20208;-58
2022/05/10 01:37:12;;;;;;;22.13;13.32;;;14.10;99.90;;;;;;5032044;28;20178;-58
2022/05/10 01:40:00;;;;;;;25.27;14.15;;;14.10;99.90;;;;;;5032107;28;20193;-58
2022/05/10 01:42:33;;;;;;;21.90;13.52;;;14.10;99.90;;;;;;5032028;28;20170;-58
2022/05/10 01:45:28;;;;;;;28.15;14.93;;;14.10;99.90;;;;;;5031950;28;20351;-59
2022/05/10 01:48:00;;;;;;;22.65;13.63;;;14.10;99.90;;;;;;5026217;28;20197;-58
2022/05/10 01:50:40;;;;;;;26.48;14.95;;;14.10;99.90;;;;;;5031960;28;20184;-58
2022/05/10 01:53:11;;;;;;;25.42;14.98;;;14.00;99.90;;;;;;5031911;28;20347;-58
2022/05/10 01:55:47;;;;;;;30.35;15.57;;;14.00;99.90;;;;;;5031732;28;20794;-58
2022/05/10 01:58:27;;;;;;;25.35;13.77;;;14.00;99.90;;;;;;5031586;28;20205;-58
2022/05/10 02:00:57;;;;;;;21.88;13.55;;;14.00;99.90;;;;;;5031694;28;20660;-58
2022/05/10 02:03:38;;;;;;;30.80;14.10;;;14.00;99.90;;;;;;5031617;28;20201;-58
2022/05/10 02:06:15;;;;;;;23.95;13.95;;;14.00;99.90;;;;;;5031513;28;20212;-59
2022/05/10 02:09:03;;;;;;;25.17;14.32;;;13.90;99.90;;;;;;5031398;28;20262;-58
2022/05/10 02:11:29;;;;;;;27.85;14.65;;;13.90;99.90;;;;;;5031613;28;20335;-58
2022/05/10 02:14:00;;;;;;;25.83;13.30;;;13.90;99.90;;;;;;5031354;28;20222;-58
2022/05/10 02:16:40;;;;;;;24.85;13.23;;;13.90;99.90;;;;;;5031355;28;20644;-58
2022/05/10 02:19:13;;;;;;;25.48;13.77;;;14.00;99.90;;;;;;5031566;28;20217;-58
2022/05/10 02:21:53;;;;;;;26.00;14.95;;;14.00;99.90;;;;;;5031285;28;20170;-58
2022/05/10 02:24:27;;;;;;;21.75;12.48;;;14.00;99.90;;;;;;5031243;28;20679;-58
2022/05/10 02:27:00;;;;;;;22.05;12.35;;;14.10;99.90;;;;;;5031281;28;20257;-58
2022/05/10 02:29:43;;;;;;;19.60;13.00;;;14.10;99.90;;;;;;5031286;28;20166;-58
2022/05/10 02:35:10;;;;;;;19.95;12.77;;;14.10;99.90;;;;;;5031139;28;20188;-58
2022/05/10 02:37:36;;;;;;;17.75;11.48;;;14.10;99.90;;;;;;5030871;28;20198;-59
2022/05/10 02:40:04;;;;;;;17.80;10.63;;;14.00;99.90;;;;;;5031001;28;20235;-58
2022/05/10 02:42:30;;;;;;;20.80;11.05;;;14.10;99.90;;;;;;5030949;28;20843;-58
2022/05/10 02:44:56;;;;;;;18.15;10.63;;;14.10;99.90;;;;;;5030788;28;20229;-58
2022/05/10 02:47:37;;;;;;;22.88;10.27;;;14.10;99.90;;;;;;5030937;28;20166;-59
2022/05/10 02:50:19;;;;;;;15.73;8.43;;;14.20;99.90;;;;;;5030873;28;20180;-59
2022/05/10 02:52:45;;;;;;;13.85;7.80;;;14.20;99.90;;;;;;5030825;28;20178;-59
2022/05/10 02:55:20;;;;;;;14.43;8.32;;;14.10;99.90;;;;;;5028724;28;20664;-59
2022/05/10 02:57:48;;;;;;;14.63;7.72;;;14.10;99.90;;;;;;5030819;28;20663;-59
2022/05/10 03:00:15;;;;;;;13.18;7.85;;;14.20;99.90;;;;;;5030652;28;20277;-59
2022/05/10 03:02:46;;;;;;;13.00;7.38;;;14.20;99.90;;;;;;5030699;28;20174;-59
2022/05/10 03:05:14;;;;;;;16.30;7.82;;;14.20;99.90;;;;;;5030832;28;20212;-59
2022/05/10 03:07:40;;;;;;;18.65;7.50;;;14.20;99.90;;;;;;5030763;28;20270;-59
2022/05/10 03:10:07;;;;;;;13.63;6.90;;;14.30;99.90;;;;;;5030929;28;20177;-59
2022/05/10 03:12:33;;;;;;;9.98;6.50;;;14.30;99.90;;;;;;5030475;28;20637;-56
2022/05/10 03:14:59;;;;;;;11.15;6.15;;;14.30;99.90;;;;;;5030632;28;20181;-59
2022/05/10 03:17:26;;;;;;;14.48;5.53;;;14.30;99.90;;;;;;5030623;28;20174;-58
2022/05/10 03:19:51;;;;;;;10.88;5.57;;;14.30;99.90;;;;;;5030587;28;20566;-58
2022/05/10 03:22:17;;;;;;;11.25;5.32;;;14.30;99.90;;;;;;5030766;28;20265;-59
2022/05/10 03:24:43;;;;;;;9.23;5.10;;;14.40;99.90;;;;;;5030535;28;20181;-58
2022/05/10 03:27:11;;;;;;;10.80;5.50;;;14.30;99.90;;;;;;5030711;28;20173;-59
2022/05/10 03:29:39;;;;;;;12.70;6.10;;;14.30;99.90;;;;;;5030627;28;20220;-59
2022/05/10 03:32:06;;;;;;;11.77;5.03;;;14.30;99.90;;;;;;5030860;28;20174;-58
2022/05/10 03:37:16;;;;;;;15.05;6.30;;;14.30;99.90;;;;;;5030563;28;20628;-59
2022/05/10 03:39:41;;;;;;;20.42;6.15;;;14.20;99.90;;;;;;5030519;28;20356;-59
2022/05/10 03:42:08;;;;;;;11.98;5.20;;;14.30;99.90;;;;;;5030460;28;20170;-59
2022/05/10 03:44:35;;;;;;;13.48;5.72;;;14.20;99.90;;;;;;5033168;28;20283;-59
2022/05/10 03:47:00;;;;;;;10.23;5.63;;;14.20;99.90;;;;;;5034484;28;20177;-59
2022/05/10 03:49:26;;;;;;;14.57;5.57;;;14.20;99.90;;;;;;5034225;28;20563;-59
2022/05/10 03:51:54;;;;;;;10.30;5.38;;;14.30;99.90;;;;;;5034157;28;20251;-59
2022/05/10 03:54:24;;;;;;;10.15;5.45;;;14.20;99.90;;;;;;5034087;28;20663;-59
2022/05/10 03:56:50;;;;;;;10.50;4.70;;;14.20;99.90;;;;;;5034074;28;20264;-59
2022/05/10 03:59:17;;;;;;;8.07;4.57;;;14.30;99.90;;;;;;5034001;28;20241;-58
2022/05/10 04:01:44;;;;;;;10.10;4.72;;;14.30;99.90;;;;;;5034023;28;20182;-57
2022/05/10 04:04:10;;;;;;;9.10;4.30;;;14.20;99.90;;;;;;5033869;28;20307;-58
2022/05/10 04:06:36;;;;;;;9.73;4.50;;;14.30;99.90;;;;;;5033991;28;20216;-57
2022/05/10 04:09:02;;;;;;;8.65;4.18;;;14.30;99.90;;;;;;5033855;28;20180;-57
2022/05/10 04:11:28;;;;;;;7.97;4.65;;;14.30;99.90;;;;;;5033666;28;20166;-58
2022/05/10 04:13:54;;;;;;;11.18;4.60;;;14.30;99.90;;;;;;5033716;28;20172;-57
2022/05/10 04:16:19;;;;;;;7.50;4.18;;;14.30;99.90;;;;;;5033836;28;20680;-58
2022/05/10 04:18:45;;;;;;;12.38;4.65;;;14.30;99.90;;;;;;5033537;28;20742;-58
2022/05/10 04:21:11;;;;;;;8.88;4.10;;;14.30;99.90;;;;;;5033635;28;20704;-58
2022/05/10 04:23:37;;;;;;;13.32;4.45;;;14.30;99.90;;;;;;5033455;28;20667;-57
2022/05/10 04:26:11;;;;;;;13.75;4.28;;;14.20;99.90;;;;;;5032092;28;20239;-58
2022/05/10 04:28:37;;;;;;;9.25;4.82;;;14.30;99.90;;;;;;5048830;28;20581;-58
2022/05/10 04:31:04;;;;;;;8.73;3.95;;;14.30;99.90;;;;;;5033375;28;20189;-58
2022/05/10 04:33:29;;;;;;;7.90;4.32;;;14.30;99.90;;;;;;5033364;28;20178;-58
2022/05/10 04:35:55;;;;;;;11.98;4.85;;;14.30;99.90;;;;;;5033272;28;20181;-57
2022/05/10 04:38:21;;;;;;;14.25;4.50;;;14.20;99.90;;;;;;5033125;28;20201;-58
2022/05/10 04:43:34;;;;;;;9.80;4.22;;;14.10;99.90;;;;;;5033239;28;20224;-57
2022/05/10 04:46:00;;;;;;;10.65;4.53;;;14.10;99.90;;;;;;5033122;28;20178;-57
2022/05/10 04:48:25;;;;;;;8.23;4.30;;;14.10;99.90;;;;;;5031830;28;20182;-58
2022/05/10 04:50:52;;;;;;;11.35;4.55;;;14.10;99.90;;;;;;5033073;28;20265;-58
2022/05/10 04:53:17;;;;;;;9.88;4.53;;;14.10;99.90;;;;;;5033117;28;20292;-58
2022/05/10 04:55:43;;;;;;;7.68;4.50;;;14.10;99.90;;;;;;5032333;28;20257;-58
2022/05/10 04:58:09;;;;;;;10.00;4.63;;;14.10;99.90;;;;;;5032808;28;20197;-58
2022/05/10 05:00:34;;;;;;;9.80;4.10;;;14.10;99.90;;;;;;5032860;28;20208;-59
2022/05/10 05:03:00;;;;;;;10.82;4.57;;;14.10;99.90;;;;;;5033014;28;20201;-58
2022/05/10 05:05:26;;;;;;;10.70;4.60;;;14.10;99.90;;;;;;5032646;28;20635;-58
2022/05/10 05:07:51;;;;;;;9.50;4.22;;;14.10;99.90;;;;;;5032668;28;20539;-58
2022/05/10 05:10:17;;;;;;;12.25;4.40;;;14.10;99.90;;;;;;5032697;28;20177;-58
2022/05/10 05:12:43;;;;;;;7.45;4.47;;;14.10;99.90;;;;;;5032611;28;20173;-58
2022/05/10 05:15:12;;;;;;;12.07;5.10;;;14.10;99.90;;;;;;5032541;28;20660;-58
2022/05/10 05:17:38;;;;;;;8.90;4.57;;;14.10;99.90;;;;;;5032672;28;20209;-58
2022/05/10 05:20:04;;;;;;;8.85;4.28;;;14.10;99.90;;;;;;5030159;28;20188;-59
2022/05/10 05:22:30;;;;;;;8.38;4.50;;;14.10;99.90;;;;;;5032210;28;20597;-58
2022/05/10 05:24:56;;;;;;;11.32;4.50;;;14.10;99.90;;;;;;5032517;28;20180;-58
2022/05/10 05:27:22;;;;;;;10.25;4.55;;;14.00;99.90;;;;;;5032378;28;20247;-58
2022/05/10 05:29:48;;;;;;;11.02;4.95;;;14.00;99.90;;;;;;5032226;28;20656;-58
2022/05/10 05:32:17;;;;;;;10.85;5.03;;;14.00;99.90;;;;;;5032182;28;20170;-58
2022/05/10 05:34:43;;;;;;;6.53;4.50;;;13.90;99.90;;;;;;5032078;28;20197;-58
2022/05/10 05:39:53;;;;;;;9.82;4.95;;;13.90;99.90;;;;;;5032379;28;20227;-58
2022/05/10 05:42:18;;;;;;;8.33;5.00;;;13.80;99.90;;;;;;5032001;28;20198;-58
2022/05/10 05:44:44;;;;;;;14.52;5.80;;;13.70;99.90;;;;;;5031797;28;20718;-58
2022/05/10 05:47:11;;;;;;;10.13;5.72;;;13.60;99.90;;;;;;5031889;28;20672;-58
2022/05/10 05:49:36;;;;;;;11.80;6.10;;;13.60;99.90;;;;;;5032126;28;20241;-58
2022/05/10 05:52:03;;;;;;;13.25;6.78;;;13.60;99.90;;;;;;5032104;28;20319;-57
2022/05/10 05:54:31;;;;;;;11.73;6.35;;;13.50;99.90;;;;;;5030465;28;20173;-58
2022/05/10 05:57:05;;;;;;;13.30;6.30;;;13.60;99.90;;;;;;5031846;28;20255;-59
2022/05/10 05:59:34;;;;;;;10.70;5.80;;;13.50;99.90;;;;;;5031707;28;20213;-58
2022/05/10 06:02:00;;;;;;;12.40;5.90;;;13.60;99.90;;;;;;5031974;28;20173;-58
2022/05/10 06:04:26;;;;;;;9.47;5.97;;;13.60;99.90;;;;;;5031731;28;20632;-58
2022/05/10 06:06:52;;;;;;;12.80;5.70;;;13.60;99.90;;;;;;5030595;28;20211;-58
2022/05/10 06:09:22;;;;;;;17.00;5.67;;;13.60;99.90;;;;;;5031600;28;20521;-58
2022/05/10 06:11:51;;;;;;;11.98;5.70;;;13.60;99.90;;;;;;5031710;28;20182;-58
2022/05/10 06:14:18;;;;;;;12.05;5.25;;;13.70;99.90;;;;;;5031326;28;20640;-58
2022/05/10 06:16:44;;;;;;;12.70;4.78;;;13.70;99.90;;;;;;5031300;28;20182;-58
2022/05/10 06:19:11;;;;;;;14.70;5.05;;;13.70;99.90;;;;;;5031232;28;20786;-58
2022/05/10 06:21:36;;;;;;;10.55;4.95;;;13.80;99.90;;;;;;5031197;28;20182;-58
2022/05/10 06:24:03;;;;;;;13.68;5.88;;;13.80;99.90;;;;;;5031299;28;20192;-58
2022/05/10 06:26:28;;;;;;;11.02;5.22;;;13.80;99.90;;;;;;5031185;28;20173;-59
2022/05/10 06:28:54;;;;;;;14.68;6.15;;;13.80;99.90;;;;;;5031071;28;20696;-58
2022/05/10 06:31:20;;;;;;;12.85;5.88;;;13.90;99.90;;;;;;5031088;28;20162;-58
2022/05/10 06:33:45;;;;;;;18.70;5.75;;;13.90;99.90;;;;;;5031042;28;20533;-58
2022/05/10 06:36:11;;;;;;;15.43;6.20;;;13.90;99.90;;;;;;5031088;28;20177;-58
2022/05/10 06:38:37;;;;;;;7.00;3.35;;;13.90;99.90;;;;;;5030810;28;20205;-59
2022/05/10 06:41:04;;;;;;;4.82;3.03;;;13.80;99.90;;;;;;5030878;28;20177;-58
2022/05/10 06:43:40;;;;;;;5.03;3.28;;;13.90;99.90;;;;;;5030743;28;20240;-58
2022/05/10 06:46:15;;;;;;;5.30;2.40;;;13.90;99.90;;;;;;5030783;28;20180;-59
2022/05/10 06:48:43;;;;;;;4.05;2.17;;;13.90;99.90;;;;;;5030936;28;20182;-58
2022/05/10 06:51:09;;;;;;;6.50;2.25;;;13.80;99.90;;;;;;5030837;28;20257;-58
2022/05/10 06:53:36;;;;;;;6.22;2.60;;;13.80;99.90;;;;;;5030595;28;20249;-58
2022/05/10 06:56:03;;;;;;;15.00;3.05;;;13.70;99.90;;;;;;5030611;28;20178;-57
2022/05/10 06:58:29;;;;;;;13.82;2.70;;;13.60;99.90;;;;;;5030627;28;20213;-57
2022/05/10 07:00:54;;;;;;;16.63;2.67;;;13.40;99.90;;;;;;5030540;28;20178;-57
2022/05/10 07:03:30;;;;;;;10.77;2.53;;;13.00;99.90;;;;;;5030876;28;20216;-57
2022/05/10 07:05:56;;;;;;;17.40;2.80;;;13.00;99.90;;;;;;5030658;28;20872;-58
2022/05/10 07:08:22;;;;;;;21.10;3.33;;;13.00;99.90;;;;;;5030380;28;20177;-57
2022/05/10 07:10:48;;;;;;;16.73;2.87;;;13.00;99.90;;;;;;5030645;28;20209;-58
2022/05/10 07:13:18;;;;;;;17.37;3.50;;;13.00;99.90;;;;;;5030595;28;20632;-58
2022/05/10 07:15:44;;;;;;;23.30;3.47;;;13.00;99.90;;;;;;5030682;28;20170;-58
2022/05/10 07:18:10;;;;;;;16.83;3.43;;;13.10;99.90;;;;;;5031290;28;20660;-58
2022/05/10 07:20:36;;;;;;;17.88;3.20;;;13.00;99.90;;;;;;5034616;28;20234;-57
2022/05/10 07:23:02;;;;;;;19.43;3.17;;;13.10;99.90;;;;;;5034638;28;20189;-57
2022/05/10 07:25:28;;;;;;;20.40;3.47;;;13.00;99.90;;;;;;5032471;28;20235;-58
2022/05/10 07:27:55;;;;;;;17.98;3.45;;;13.00;99.90;;;;;;5033099;28;20174;-58
2022/05/10 07:30:22;;;;;;;17.63;3.30;;;13.00;99.90;;;;;;5034478;28;20261;-58
2022/05/10 07:32:48;;;;;;;22.57;3.37;;;13.00;99.90;;;;;;5034188;28;20181;-58
2022/05/10 07:35:15;;;;;;;20.90;3.23;;;13.10;99.90;;;;;;5034410;28;20181;-58
2022/05/10 07:37:40;;;;;;;23.40;3.87;;;13.00;99.90;;;;;;5034406;28;20292;-58
2022/05/10 07:40:09;;;;;;;19.07;2.93;;;13.00;99.90;;;;;;5034458;28;20280;-58
2022/05/10 07:42:36;;;;;;;25.17;3.57;;;13.00;99.90;;;;;;5034211;28;20209;-58
2022/05/10 07:45:04;;;;;;;18.88;2.88;;;13.00;99.90;;;;;;5033958;28;20586;-58
2022/05/10 07:47:29;;;;;;;26.08;3.85;;;13.20;99.90;;;;;;5034258;28;20170;-58
2022/05/10 07:49:55;;;;;;;24.05;4.10;;;13.20;99.90;;;;;;5034062;28;20174;-58
2022/05/10 07:52:21;;;;;;;25.50;3.72;;;13.40;99.90;;;;;;5034030;28;20172;-58
2022/05/10 07:54:46;;;;;;;25.73;4.35;;;13.40;99.90;;;;;;5034040;28;20182;-59
2022/05/10 07:57:12;;;;;;;30.30;3.30;;;13.50;99.90;;;;;;5034107;28;20641;-58
2022/05/10 07:59:38;;;;;;;25.83;3.75;;;13.50;99.90;;;;;;5034005;28;20300;-58
2022/05/10 08:02:05;;;;;;;20.73;3.75;;;13.60;99.90;;;;;;5033836;28;20177;-58
2022/05/10 08:04:31;;;;;;;22.48;3.47;;;13.80;99.90;;;;;;5033770;28;20224;-58
2022/05/10 08:06:57;;;;;;;21.52;3.55;;;13.70;99.90;;;;;;5034134;28;20189;-58
2022/05/10 08:09:22;;;;;;;23.00;3.03;;;13.80;99.90;;;;;;5033655;28;20276;-58
2022/05/10 08:11:48;;;;;;;26.20;3.83;;;13.80;99.90;;;;;;5033615;28;20693;-58
2022/05/10 08:14:14;;;;;;;22.20;4.03;;;13.80;99.90;;;;;;5033594;28;20170;-58
2022/05/10 08:16:40;;;;;;;36.00;3.92;;;13.80;99.90;;;;;;5033693;28;20668;-58
2022/05/10 08:19:06;;;;;;;22.00;3.67;;;13.90;99.90;;;;;;5033350;28;20210;-59
2022/05/10 08:21:31;;;;;;;24.70;4.82;;;13.90;99.90;;;;;;5033617;28;20185;-58
2022/05/10 08:23:57;;;;;;;33.03;4.53;;;14.00;99.90;;;;;;5033564;28;20186;-58
2022/05/10 08:26:23;;;;;;;32.47;4.43;;;14.20;99.90;;;;;;5033556;28;20169;-58
2022/05/10 08:28:50;;;;;;;31.55;4.53;;;14.30;99.90;;;;;;5033423;28;20170;-58
2022/05/10 08:31:16;;;;;;;24.92;4.00;;;14.40;99.90;;;;;;5032186;28;20181;-58
2022/05/10 08:33:43;;;;;;;28.50;4.78;;;14.50;99.90;;;;;;5033343;28;20185;-59
2022/05/10 08:36:11;;;;;;;33.72;3.85;;;14.70;99.90;;;;;;5033305;28;20177;-58
2022/05/10 08:38:37;;;;;;;19.83;4.03;;;14.60;99.90;;;;;;5033238;28;20302;-58
2022/05/10 08:41:11;;;;;;;34.13;4.18;;;14.80;99.90;;;;;;5033312;28;20256;-58
2022/05/10 08:43:51;;;;;;;31.40;4.50;;;14.80;99.90;;;;;;5033069;28;20217;-58
2022/05/10 08:46:24;;;;;;;20.83;3.95;;;14.80;99.90;;;;;;5033100;28;20215;-58
2022/05/10 08:48:57;;;;;;;26.73;4.50;;;14.90;99.90;;;;;;5032966;28;20641;-58
2022/05/10 08:51:23;;;;;;;20.65;3.10;;;14.80;99.90;;;;;;5032590;28;20182;-58
2022/05/10 08:53:50;;;;;;;21.15;3.17;;;14.90;99.90;;;;;;5033101;28;20181;-58
2022/05/10 08:56:38;;;;;;;24.02;3.60;;;14.90;99.90;;;;;;5032932;28;20185;-58
2022/05/10 08:59:24;;;;;;;25.85;3.60;;;15.10;99.90;;;;;;5031382;28;20319;-58
2022/05/10 09:02:00;;;;;;;25.30;3.35;;;15.20;99.90;;;;;;5032812;28;20170;-58
2022/05/10 09:04:34;;;;;;;31.17;4.30;;;15.50;99.90;;;;;;5032919;28;20166;-58
2022/05/10 09:07:41;;;;;;;26.05;4.13;;;15.70;99.90;;;;;;5032771;28;20322;-58
2022/05/10 09:10:21;;;;;;;25.95;3.10;;;15.70;99.90;;;;;;4991096;28;20170;-58
2022/05/10 09:13:14;;;;;;;27.63;3.92;;;15.60;99.90;;;;;;5027977;28;20187;-58
2022/05/10 09:16:01;;;;;;;25.42;3.60;;;15.70;99.90;;;;;;5032609;28;20257;-58
2022/05/10 09:18:30;;;;;;;25.63;3.25;;;16.30;99.90;;;;;;5032374;28;20222;-58
2022/05/10 09:21:10;;;;;;;23.98;3.28;;;16.80;99.90;;;;;;5032484;28;20176;-56
2022/05/10 09:23:41;;;;;;;28.90;3.67;;;16.90;99.90;;;;;;5032484;28;20174;-56
2022/05/10 09:26:11;;;;;;;23.25;3.70;;;17.00;99.90;;;;;;5032531;28;20217;-56
2022/05/10 09:28:51;;;;;;;29.38;3.67;;;17.10;99.90;;;;;;5032324;28;20178;-56
2022/05/10 09:37:26;;;;;;;24.83;3.65;;;17.50;99.90;;;;;;5032149;28;20184;-57
2022/05/10 09:40:04;;;;;;;29.98;4.43;;;17.00;99.90;;;;;;5031930;28;20224;-57
2022/05/10 09:42:51;;;;;;;27.13;3.60;;;16.80;99.90;;;;;;5030440;28;20567;-57
2022/05/10 09:45:17;;;;;;;23.10;3.70;;;16.70;99.90;;;;;;5031894;28;20226;-57
2022/05/10 09:48:09;;;;;;;25.48;3.75;;;16.60;99.90;;;;;;5031904;28;20696;-57
2022/05/10 09:50:49;;;;;;;28.60;3.20;;;17.10;99.90;;;;;;5029883;28;20189;-57
2022/05/10 09:53:23;;;;;;;21.70;3.38;;;17.30;99.90;;;;;;5031725;28;20235;-57
2022/05/10 09:56:06;;;;;;;24.20;3.67;;;17.30;99.90;;;;;;5032052;28;20260;-57
2022/05/10 09:58:36;;;;;;;22.00;3.25;;;17.70;99.90;;;;;;5031688;28;20220;-57
2022/05/10 10:01:05;;;;;;;22.80;3.10;;;18.40;99.90;;;;;;5031750;28;20170;-57
2022/05/10 10:03:39;;;;;;;17.83;3.15;;;18.60;99.90;;;;;;5031338;28;20197;-57
2022/05/10 10:06:24;;;;;;;19.20;2.70;;;18.80;99.90;;;;;;5031510;28;20162;-57
2022/05/10 10:08:51;;;;;;;16.20;3.10;;;19.10;99.90;;;;;;5031602;28;20172;-57
2022/05/10 10:11:32;;;;;;;15.52;2.95;;;18.80;99.90;;;;;;5031456;28;20166;-57
2022/05/10 10:14:06;;;;;;;21.83;3.15;;;18.40;99.90;;;;;;5031306;28;20181;-57
2022/05/10 10:16:46;;;;;;;17.40;3.03;;;18.40;99.90;;;;;;5031234;28;20181;-57
2022/05/10 10:19:36;;;;;;;21.60;3.33;;;18.70;99.90;;;;;;5031304;28;20680;-57
2022/05/10 10:22:14;;;;;;;13.40;2.65;;;19.30;99.90;;;;;;5031173;28;20177;-57
2022/05/10 10:25:03;;;;;;;15.55;2.85;;;18.90;99.90;;;;;;5031266;28;20197;-57
2022/05/10 10:27:31;;;;;;;21.48;3.15;;;18.40;99.90;;;;;;5031156;28;20196;-58
2022/05/10 10:30:27;;;;;;;14.77;2.45;;;19.20;99.90;;;;;;5031184;28;20188;-57
2022/05/10 10:33:23;;;;;;;16.83;3.00;;;19.80;99.90;;;;;;5031043;28;20174;-58
2022/05/10 10:36:09;;;;;;;21.85;3.35;;;20.20;99.90;;;;;;5031046;28;20169;-58
2022/05/10 10:39:16;;;;;;;16.30;2.90;;;19.40;99.90;;;;;;5030703;28;20708;-58
2022/05/10 10:42:01;;;;;;;16.42;3.03;;;18.70;99.90;;;;;;5031004;28;20173;-58
2022/05/10 10:44:29;;;;;;;18.13;4.22;;;18.20;99.90;;;;;;5030719;28;20249;-58
2022/05/10 10:47:22;;;;;;;25.80;3.97;;;18.40;99.90;;;;;;5030787;28;20253;-58
2022/05/10 10:50:13;;;;;;;16.63;3.20;;;18.40;99.90;;;;;;5031008;28;20174;-58
2022/05/10 10:52:39;;;;;;;18.38;3.05;;;19.30;99.90;;;;;;5030306;28;20240;-56
2022/05/10 10:55:07;;;;;;;13.18;3.42;;;19.50;99.90;;;;;;5030636;28;20249;-56
2022/05/10 10:58:00;;;;;;;13.32;2.50;;;19.60;99.90;;;;;;5030675;28;20180;-57
2022/05/10 11:00:37;;;;;;;19.63;4.45;;;19.30;99.90;;;;;;5030473;28;20288;-57
2022/05/10 11:03:14;;;;;;;15.88;3.60;;;19.20;99.90;;;;;;5030585;28;20255;-57
2022/05/10 11:05:54;;;;;;;24.35;5.72;;;19.00;99.90;;;;;;5030523;28;20169;-57
2022/05/10 11:08:22;;;;;;;16.33;2.70;;;18.90;99.90;;;;;;5030610;28;20636;-57
2022/05/10 11:11:15;;;;;;;17.90;2.80;;;18.50;99.90;;;;;;5030809;28;20180;-58
2022/05/10 11:14:00;;;;;;;16.05;2.80;;;18.50;99.90;;;;;;5030680;28;20170;-58
2022/05/10 11:16:34;;;;;;;18.02;3.20;;;19.30;99.90;;;;;;5030492;28;20249;-57
2022/05/10 11:19:22;;;;;;;11.75;2.72;;;19.60;99.90;;;;;;5030328;28;20254;-57
2022/05/10 11:22:25;;;;;;;18.73;2.47;;;20.10;99.90;;;;;;5020166;28;20193;-57
2022/05/10 11:24:55;;;;;;;15.27;3.53;;;20.70;99.90;;;;;;5030161;28;20186;-57
2022/05/10 11:27:58;;;;;;;16.55;2.83;;;20.40;99.90;;;;;;5030237;28;20189;-57
2022/05/10 11:30:44;;;;;;;14.85;2.80;;;20.70;99.90;;;;;;5030337;28;20668;-57
2022/05/10 11:33:34;;;;;;;6.97;1.90;;;21.00;99.90;;;;;;5030410;28;20178;-57
2022/05/10 11:36:02;;;;;;;12.48;2.13;;;21.00;99.90;;;;;;5030286;28;20265;-57
2022/05/10 11:38:37;;;;;;;19.73;3.15;;;20.30;99.90;;;;;;5030370;28;20236;-57
2022/05/10 11:41:08;;;;;;;14.80;3.00;;;20.70;99.90;;;;;;5030273;28;20181;-58
2022/05/10 11:43:43;;;;;;;11.57;2.65;;;21.90;99.90;;;;;;5029937;28;20644;-58
2022/05/10 11:46:15;;;;;;;15.55;3.10;;;22.50;99.90;;;;;;5028939;28;20268;-58
2022/05/10 11:48:56;;;;;;;14.90;2.10;;;22.90;99.90;;;;;;5030095;28;20170;-58
2022/05/10 11:52:06;;;;;;;15.43;2.55;;;23.10;99.90;;;;;;5030107;28;20526;-58
2022/05/10 11:54:57;;;;;;;14.85;2.60;;;22.40;99.90;;;;;;5008031;28;20186;-58
2022/05/10 11:57:24;;;;;;;14.48;3.03;;;22.80;99.90;;;;;;4999026;28;20182;-58
2022/05/10 11:59:51;;;;;;;14.80;3.58;;;22.30;99.90;;;;;;5016276;28;20225;-58
2022/05/10 12:02:28;;;;;;;9.55;2.30;;;22.40;99.90;;;;;;5030113;28;20176;-58
2022/05/10 12:05:22;;;;;;;11.70;2.35;;;22.20;99.90;;;;;;5029491;28;20288;-58
2022/05/10 12:07:52;;;;;;;10.20;2.55;;;21.80;99.90;;;;;;5014093;28;20257;-58
2022/05/10 12:10:42;;;;;;;13.63;2.70;;;21.60;99.90;;;;;;5037286;28;20177;-59
2022/05/10 12:22:11;;;;;;;15.43;2.10;;;22.50;99.90;;;;;;5033359;28;20221;-58
2022/05/10 12:24:44;;;;;;;13.52;2.67;;;23.20;99.90;;;;;;5033597;28;20174;-59
2022/05/10 12:27:12;;;;;;;17.67;6.72;;;23.40;99.90;;;;;;5033815;28;20261;-58
2022/05/10 12:29:37;;;;;;;18.45;5.93;;;23.30;99.90;;;;;;5033463;28;20637;-56
2022/05/10 12:32:03;;;;;;;12.00;3.40;;;23.40;99.90;;;;;;5033502;28;20174;-58
2022/05/10 12:34:58;;;;;;;13.75;3.33;;;23.90;99.90;;;;;;5033293;28;20202;-58
2022/05/10 12:37:27;;;;;;;19.13;7.50;;;24.00;99.90;;;;;;5033197;28;20585;-58
2022/05/10 12:40:04;;;;;;;14.25;2.45;;;23.80;99.90;;;;;;5033116;28;20240;-58
2022/05/10 12:42:54;;;;;;;12.13;2.35;;;23.60;99.90;;;;;;5033211;28;20257;-58
2022/05/10 12:45:21;;;;;;;9.77;2.10;;;22.80;99.90;;;;;;5033198;28;20217;-57
2022/05/10 12:48:01;;;;;;;15.52;2.17;;;23.30;99.90;;;;;;5032984;28;20178;-60
2022/05/10 12:50:51;;;;;;;13.13;2.28;;;22.80;99.90;;;;;;5033263;28;20212;-58
2022/05/10 12:53:36;;;;;;;10.55;2.22;;;23.00;99.90;;;;;;5033186;28;20324;-58
2022/05/10 12:56:06;;;;;;;11.57;2.45;;;22.90;99.90;;;;;;5032996;28;20166;-58
2022/05/10 12:58:36;;;;;;;13.45;2.63;;;22.80;99.90;;;;;;5032850;28;20220;-58
2022/05/10 13:01:05;;;;;;;13.02;3.28;;;23.20;99.90;;;;;;5032879;28;20169;-58
2022/05/10 13:03:35;;;;;;;18.27;4.43;;;23.70;99.90;;;;;;5032958;28;20177;-58
2022/05/10 13:06:22;;;;;;;11.75;2.22;;;24.00;99.90;;;;;;5032828;28;20173;-58
2022/05/10 13:09:21;;;;;;;10.10;2.47;;;24.20;99.90;;;;;;5032719;28;20276;-58
2022/05/10 13:12:18;;;;;;;10.48;2.45;;;23.50;99.90;;;;;;5032754;28;20679;-58
2022/05/10 13:15:11;;;;;;;14.20;2.20;;;23.40;99.90;;;;;;5032717;28;20166;-58
2022/05/10 13:17:37;;;;;;;11.25;2.40;;;24.30;99.90;;;;;;5032021;28;20174;-58
2022/05/10 13:20:10;;;;;;;9.52;2.40;;;24.10;99.90;;;;;;5032550;28;20197;-58
2022/05/10 13:22:37;;;;;;;12.25;2.65;;;24.50;99.90;;;;;;5032321;28;20645;-58
2022/05/10 13:25:06;;;;;;;11.30;2.10;;;24.50;99.90;;;;;;5032404;28;20264;-58
2022/05/10 13:27:37;;;;;;;8.88;1.98;;;24.30;99.90;;;;;;5032235;28;20660;-59
2022/05/10 13:30:08;;;;;;;10.82;2.22;;;23.60;99.90;;;;;;5032101;28;20502;-58
2022/05/10 13:32:37;;;;;;;12.13;2.08;;;23.90;99.90;;;;;;5032253;28;20186;-59